sensor_id;sensor_type;location;lat;lon;timestamp;P1;durP1;ratioP1;P2;durP2;ratioP2
6336;SDS011;3201;49.962;11.618;2023-02-03T00:01:53;1.40;;;1.20;;
6336;SDS011;3201;49.962;11.618;2023-02-03T00:04:18;1.63;;;1.47;;
6336;SDS011;3201;49.962;11.618;2023-02-03T00:06:43;1.80;;;1.50;;
6336;SDS011;3201;49.962;11.618;2023-02-03T00:09:09;1.70;;;1.50;;
6336;SDS011;3201;49.962;11.618;2023-02-03T00:11:34;1.60;;;1.33;;
6336;SDS011;3201;49.962;11.618;2023-02-03T00:14:00;2.13;;;1.70;;
6336;SDS011;3201;49.962;11.618;2023-02-03T00:16:25;1.53;;;1.43;;
6336;SDS011;3201;49.962;11.618;2023-02-03T00:18:50;1.50;;;1.40;;
6336;SDS011;3201;49.962;11.618;2023-02-03T00:21:16;1.70;;;1.60;;
6336;SDS011;3201;49.962;11.618;2023-02-03T00:23:41;1.93;;;1.73;;
6336;SDS011;3201;49.962;11.618;2023-02-03T00:26:07;1.73;;;1.63;;
6336;SDS011;3201;49.962;11.618;2023-02-03T00:28:34;1.70;;;1.60;;
6336;SDS011;3201;49.962;11.618;2023-02-03T00:30:59;2.17;;;1.47;;
6336;SDS011;3201;49.962;11.618;2023-02-03T00:33:24;1.60;;;1.47;;
6336;SDS011;3201;49.962;11.618;2023-02-03T00:35:50;2.20;;;1.60;;
6336;SDS011;3201;49.962;11.618;2023-02-03T00:38:15;2.00;;;1.47;;
6336;SDS011;3201;49.962;11.618;2023-02-03T00:40:40;1.93;;;1.50;;
6336;SDS011;3201;49.962;11.618;2023-02-03T00:43:06;1.97;;;1.30;;
6336;SDS011;3201;49.962;11.618;2023-02-03T00:45:31;1.40;;;1.17;;
6336;SDS011;3201;49.962;11.618;2023-02-03T00:47:56;1.40;;;1.30;;
6336;SDS011;3201;49.962;11.618;2023-02-03T00:50:21;2.17;;;1.27;;
6336;SDS011;3201;49.962;11.618;2023-02-03T00:52:47;1.70;;;1.60;;
6336;SDS011;3201;49.962;11.618;2023-02-03T00:55:12;1.90;;;1.50;;
6336;SDS011;3201;49.962;11.618;2023-02-03T00:57:37;2.47;;;1.10;;
6336;SDS011;3201;49.962;11.618;2023-02-03T01:00:03;2.10;;;1.37;;
6336;SDS011;3201;49.962;11.618;2023-02-03T01:02:29;1.50;;;1.33;;
6336;SDS011;3201;49.962;11.618;2023-02-03T01:04:54;1.37;;;1.20;;
6336;SDS011;3201;49.962;11.618;2023-02-03T01:07:20;1.17;;;1.00;;
6336;SDS011;3201;49.962;11.618;2023-02-03T01:09:45;1.03;;;0.93;;
6336;SDS011;3201;49.962;11.618;2023-02-03T01:12:10;1.80;;;1.30;;
6336;SDS011;3201;49.962;11.618;2023-02-03T01:14:35;2.50;;;1.50;;
6336;SDS011;3201;49.962;11.618;2023-02-03T01:17:01;1.50;;;1.30;;
6336;SDS011;3201;49.962;11.618;2023-02-03T01:19:26;1.47;;;1.37;;
6336;SDS011;3201;49.962;11.618;2023-02-03T01:21:51;1.77;;;1.23;;
6336;SDS011;3201;49.962;11.618;2023-02-03T01:24:17;2.20;;;1.40;;
6336;SDS011;3201;49.962;11.618;2023-02-03T01:26:42;1.60;;;1.40;;
6336;SDS011;3201;49.962;11.618;2023-02-03T01:29:08;1.63;;;1.50;;
6336;SDS011;3201;49.962;11.618;2023-02-03T01:31:34;1.23;;;1.13;;
6336;SDS011;3201;49.962;11.618;2023-02-03T01:34:03;1.23;;;1.10;;
6336;SDS011;3201;49.962;11.618;2023-02-03T01:36:30;2.07;;;1.20;;
6336;SDS011;3201;49.962;11.618;2023-02-03T01:38:56;1.40;;;1.30;;
6336;SDS011;3201;49.962;11.618;2023-02-03T01:41:22;1.53;;;1.30;;
6336;SDS011;3201;49.962;11.618;2023-02-03T01:43:51;1.63;;;1.30;;
6336;SDS011;3201;49.962;11.618;2023-02-03T01:49:06;1.60;;;1.20;;
6336;SDS011;3201;49.962;11.618;2023-02-03T01:51:33;1.10;;;1.00;;
6336;SDS011;3201;49.962;11.618;2023-02-03T01:53:59;1.80;;;1.20;;
6336;SDS011;3201;49.962;11.618;2023-02-03T01:56:26;1.43;;;1.33;;
6336;SDS011;3201;49.962;11.618;2023-02-03T01:58:52;1.53;;;1.10;;
6336;SDS011;3201;49.962;11.618;2023-02-03T02:01:18;1.07;;;0.97;;
6336;SDS011;3201;49.962;11.618;2023-02-03T02:03:44;1.27;;;1.17;;
6336;SDS011;3201;49.962;11.618;2023-02-03T02:06:13;1.33;;;1.23;;
6336;SDS011;3201;49.962;11.618;2023-02-03T02:08:39;1.40;;;0.93;;
6336;SDS011;3201;49.962;11.618;2023-02-03T02:11:06;2.30;;;1.83;;
6336;SDS011;3201;49.962;11.618;2023-02-03T02:13:32;1.40;;;1.30;;
6336;SDS011;3201;49.962;11.618;2023-02-03T02:21:20;1.10;;;1.00;;
6336;SDS011;3201;49.962;11.618;2023-02-03T02:26:48;2.00;;;1.80;;
6336;SDS011;3201;49.962;11.618;2023-02-03T02:32:07;1.30;;;1.20;;
6336;SDS011;3201;49.962;11.618;2023-02-03T02:38:13;1.07;;;0.97;;
6336;SDS011;3201;49.962;11.618;2023-02-03T02:46:08;1.50;;;1.20;;
6336;SDS011;3201;49.962;11.618;2023-02-03T02:49:24;2.20;;;1.20;;
6336;SDS011;3201;49.962;11.618;2023-02-03T02:51:10;2.17;;;1.50;;
6336;SDS011;3201;49.962;11.618;2023-02-03T02:53:39;1.53;;;1.30;;
6336;SDS011;3201;49.962;11.618;2023-02-03T02:56:08;2.40;;;1.60;;
6336;SDS011;3201;49.962;11.618;2023-02-03T02:58:36;1.33;;;1.10;;
6336;SDS011;3201;49.962;11.618;2023-02-03T03:01:04;1.90;;;1.23;;
6336;SDS011;3201;49.962;11.618;2023-02-03T03:03:31;1.27;;;1.17;;
6336;SDS011;3201;49.962;11.618;2023-02-03T03:05:58;1.97;;;1.00;;
6336;SDS011;3201;49.962;11.618;2023-02-03T03:08:30;1.63;;;0.90;;
6336;SDS011;3201;49.962;11.618;2023-02-03T03:10:58;1.90;;;1.50;;
6336;SDS011;3201;49.962;11.618;2023-02-03T03:13:27;1.23;;;1.00;;
6336;SDS011;3201;49.962;11.618;2023-02-03T03:15:55;1.37;;;1.00;;
6336;SDS011;3201;49.962;11.618;2023-02-03T03:18:22;1.40;;;1.13;;
6336;SDS011;3201;49.962;11.618;2023-02-03T03:20:52;1.30;;;1.13;;
6336;SDS011;3201;49.962;11.618;2023-02-03T03:23:21;1.10;;;1.00;;
6336;SDS011;3201;49.962;11.618;2023-02-03T03:25:50;1.10;;;0.90;;
6336;SDS011;3201;49.962;11.618;2023-02-03T03:28:24;1.23;;;1.07;;
6336;SDS011;3201;49.962;11.618;2023-02-03T03:30:54;1.20;;;1.10;;
6336;SDS011;3201;49.962;11.618;2023-02-03T03:33:20;1.17;;;1.00;;
6336;SDS011;3201;49.962;11.618;2023-02-03T03:35:48;1.43;;;1.27;;
6336;SDS011;3201;49.962;11.618;2023-02-03T03:38:19;1.10;;;1.00;;
6336;SDS011;3201;49.962;11.618;2023-02-03T03:40:48;1.43;;;1.20;;
6336;SDS011;3201;49.962;11.618;2023-02-03T03:43:20;2.27;;;1.70;;
6336;SDS011;3201;49.962;11.618;2023-02-03T03:51:00;0.80;;;0.80;;
6336;SDS011;3201;49.962;11.618;2023-02-03T03:53:27;1.03;;;0.90;;
6336;SDS011;3201;49.962;11.618;2023-02-03T03:55:54;1.73;;;1.03;;
6336;SDS011;3201;49.962;11.618;2023-02-03T03:58:22;1.30;;;1.10;;
6336;SDS011;3201;49.962;11.618;2023-02-03T04:00:50;1.53;;;1.30;;
6336;SDS011;3201;49.962;11.618;2023-02-03T04:03:20;1.33;;;1.07;;
6336;SDS011;3201;49.962;11.618;2023-02-03T04:05:47;1.90;;;1.23;;
6336;SDS011;3201;49.962;11.618;2023-02-03T04:08:12;1.87;;;1.30;;
6336;SDS011;3201;49.962;11.618;2023-02-03T04:10:39;1.77;;;0.90;;
6336;SDS011;3201;49.962;11.618;2023-02-03T04:13:06;1.60;;;1.10;;
6336;SDS011;3201;49.962;11.618;2023-02-03T04:15:33;1.93;;;1.10;;
6336;SDS011;3201;49.962;11.618;2023-02-03T04:17:59;1.83;;;0.90;;
6336;SDS011;3201;49.962;11.618;2023-02-03T04:20:26;1.00;;;0.90;;
6336;SDS011;3201;49.962;11.618;2023-02-03T04:22:52;0.87;;;0.87;;
6336;SDS011;3201;49.962;11.618;2023-02-03T04:25:18;1.43;;;1.07;;
6336;SDS011;3201;49.962;11.618;2023-02-03T04:27:43;1.33;;;1.00;;
6336;SDS011;3201;49.962;11.618;2023-02-03T04:30:09;1.53;;;1.27;;
6336;SDS011;3201;49.962;11.618;2023-02-03T04:32:35;2.90;;;1.07;;
6336;SDS011;3201;49.962;11.618;2023-02-03T04:35:01;1.70;;;1.27;;
6336;SDS011;3201;49.962;11.618;2023-02-03T04:37:27;1.23;;;0.70;;
6336;SDS011;3201;49.962;11.618;2023-02-03T04:39:52;1.37;;;1.10;;
6336;SDS011;3201;49.962;11.618;2023-02-03T04:42:19;1.20;;;1.07;;
6336;SDS011;3201;49.962;11.618;2023-02-03T04:44:45;1.30;;;1.00;;
6336;SDS011;3201;49.962;11.618;2023-02-03T04:47:10;1.47;;;1.00;;
6336;SDS011;3201;49.962;11.618;2023-02-03T04:49:35;1.10;;;1.00;;
6336;SDS011;3201;49.962;11.618;2023-02-03T04:52:01;1.50;;;0.80;;
6336;SDS011;3201;49.962;11.618;2023-02-03T04:54:26;1.10;;;1.00;;
6336;SDS011;3201;49.962;11.618;2023-02-03T04:56:51;1.13;;;0.80;;
6336;SDS011;3201;49.962;11.618;2023-02-03T04:59:17;2.50;;;1.23;;
6336;SDS011;3201;49.962;11.618;2023-02-03T05:01:42;0.80;;;0.80;;
6336;SDS011;3201;49.962;11.618;2023-02-03T05:04:07;1.80;;;1.00;;
6336;SDS011;3201;49.962;11.618;2023-02-03T05:06:32;1.37;;;0.90;;
6336;SDS011;3201;49.962;11.618;2023-02-03T05:08:58;0.93;;;0.70;;
6336;SDS011;3201;49.962;11.618;2023-02-03T05:11:23;1.50;;;0.70;;
6336;SDS011;3201;49.962;11.618;2023-02-03T05:13:49;1.63;;;1.03;;
6336;SDS011;3201;49.962;11.618;2023-02-03T05:16:14;1.17;;;1.07;;
6336;SDS011;3201;49.962;11.618;2023-02-03T05:18:40;1.67;;;0.93;;
6336;SDS011;3201;49.962;11.618;2023-02-03T05:21:05;1.23;;;1.13;;
6336;SDS011;3201;49.962;11.618;2023-02-03T05:23:31;1.23;;;0.80;;
6336;SDS011;3201;49.962;11.618;2023-02-03T05:25:56;1.57;;;1.10;;
6336;SDS011;3201;49.962;11.618;2023-02-03T05:28:22;1.13;;;1.03;;
6336;SDS011;3201;49.962;11.618;2023-02-03T05:30:47;1.00;;;0.90;;
6336;SDS011;3201;49.962;11.618;2023-02-03T05:33:12;0.73;;;0.70;;
6336;SDS011;3201;49.962;11.618;2023-02-03T05:35:38;1.17;;;0.87;;
6336;SDS011;3201;49.962;11.618;2023-02-03T05:38:03;1.40;;;1.07;;
6336;SDS011;3201;49.962;11.618;2023-02-03T05:40:29;1.10;;;1.00;;
6336;SDS011;3201;49.962;11.618;2023-02-03T05:43:14;2.40;;;0.73;;
6336;SDS011;3201;49.962;11.618;2023-02-03T05:45:39;2.20;;;1.30;;
6336;SDS011;3201;49.962;11.618;2023-02-03T05:48:05;0.90;;;0.80;;
6336;SDS011;3201;49.962;11.618;2023-02-03T05:50:31;1.00;;;0.80;;
6336;SDS011;3201;49.962;11.618;2023-02-03T05:52:58;1.47;;;0.70;;
6336;SDS011;3201;49.962;11.618;2023-02-03T05:55:24;1.23;;;0.80;;
6336;SDS011;3201;49.962;11.618;2023-02-03T05:57:50;1.13;;;0.90;;
6336;SDS011;3201;49.962;11.618;2023-02-03T06:00:16;1.73;;;0.97;;
6336;SDS011;3201;49.962;11.618;2023-02-03T06:02:41;1.63;;;1.10;;
6336;SDS011;3201;49.962;11.618;2023-02-03T06:05:07;1.00;;;0.90;;
6336;SDS011;3201;49.962;11.618;2023-02-03T06:07:32;1.37;;;1.10;;
6336;SDS011;3201;49.962;11.618;2023-02-03T06:09:57;1.07;;;0.97;;
6336;SDS011;3201;49.962;11.618;2023-02-03T06:12:23;1.20;;;0.90;;
6336;SDS011;3201;49.962;11.618;2023-02-03T06:14:48;0.90;;;0.73;;
6336;SDS011;3201;49.962;11.618;2023-02-03T06:17:13;2.33;;;1.17;;
6336;SDS011;3201;49.962;11.618;2023-02-03T06:19:39;1.10;;;0.77;;
6336;SDS011;3201;49.962;11.618;2023-02-03T06:22:04;0.83;;;0.80;;
6336;SDS011;3201;49.962;11.618;2023-02-03T06:24:29;0.97;;;0.80;;
6336;SDS011;3201;49.962;11.618;2023-02-03T06:26:54;2.20;;;1.00;;
6336;SDS011;3201;49.962;11.618;2023-02-03T06:29:20;1.23;;;1.13;;
6336;SDS011;3201;49.962;11.618;2023-02-03T06:31:45;1.00;;;0.90;;
6336;SDS011;3201;49.962;11.618;2023-02-03T06:34:10;1.80;;;0.90;;
6336;SDS011;3201;49.962;11.618;2023-02-03T06:36:36;1.00;;;0.80;;
6336;SDS011;3201;49.962;11.618;2023-02-03T06:39:01;0.80;;;0.60;;
6336;SDS011;3201;49.962;11.618;2023-02-03T06:41:26;0.60;;;0.50;;
6336;SDS011;3201;49.962;11.618;2023-02-03T06:43:54;0.90;;;0.80;;
6336;SDS011;3201;49.962;11.618;2023-02-03T06:46:20;0.73;;;0.60;;
6336;SDS011;3201;49.962;11.618;2023-02-03T06:48:45;0.80;;;0.60;;
6336;SDS011;3201;49.962;11.618;2023-02-03T06:51:10;1.00;;;0.80;;
6336;SDS011;3201;49.962;11.618;2023-02-03T06:53:35;1.17;;;1.00;;
6336;SDS011;3201;49.962;11.618;2023-02-03T06:56:01;0.70;;;0.70;;
6336;SDS011;3201;49.962;11.618;2023-02-03T06:58:27;1.33;;;0.90;;
6336;SDS011;3201;49.962;11.618;2023-02-03T07:00:54;1.00;;;0.90;;
6336;SDS011;3201;49.962;11.618;2023-02-03T07:03:20;0.87;;;0.80;;
6336;SDS011;3201;49.962;11.618;2023-02-03T07:05:45;1.00;;;0.90;;
6336;SDS011;3201;49.962;11.618;2023-02-03T07:08:10;2.17;;;1.20;;
6336;SDS011;3201;49.962;11.618;2023-02-03T07:10:36;1.17;;;0.90;;
6336;SDS011;3201;49.962;11.618;2023-02-03T07:13:02;1.03;;;0.90;;
6336;SDS011;3201;49.962;11.618;2023-02-03T07:15:29;2.20;;;1.13;;
6336;SDS011;3201;49.962;11.618;2023-02-03T07:17:55;1.47;;;0.97;;
6336;SDS011;3201;49.962;11.618;2023-02-03T07:20:21;1.10;;;1.00;;
6336;SDS011;3201;49.962;11.618;2023-02-03T07:22:50;3.00;;;1.27;;
6336;SDS011;3201;49.962;11.618;2023-02-03T07:25:19;2.50;;;1.13;;
6336;SDS011;3201;49.962;11.618;2023-02-03T07:27:44;1.33;;;0.90;;
6336;SDS011;3201;49.962;11.618;2023-02-03T07:30:10;1.23;;;0.67;;
6336;SDS011;3201;49.962;11.618;2023-02-03T07:32:35;2.27;;;0.70;;
6336;SDS011;3201;49.962;11.618;2023-02-03T07:35:01;1.70;;;0.80;;
6336;SDS011;3201;49.962;11.618;2023-02-03T07:37:26;1.67;;;0.83;;
6336;SDS011;3201;49.962;11.618;2023-02-03T07:39:51;2.60;;;1.13;;
6336;SDS011;3201;49.962;11.618;2023-02-03T07:42:17;1.40;;;0.83;;
6336;SDS011;3201;49.962;11.618;2023-02-03T07:44:42;1.13;;;0.77;;
6336;SDS011;3201;49.962;11.618;2023-02-03T07:47:07;1.07;;;0.87;;
6336;SDS011;3201;49.962;11.618;2023-02-03T07:49:32;1.13;;;0.90;;
6336;SDS011;3201;49.962;11.618;2023-02-03T07:51:58;0.90;;;0.80;;
6336;SDS011;3201;49.962;11.618;2023-02-03T07:54:23;0.70;;;0.50;;
6336;SDS011;3201;49.962;11.618;2023-02-03T07:56:48;1.40;;;0.80;;
6336;SDS011;3201;49.962;11.618;2023-02-03T07:59:15;0.93;;;0.73;;
6336;SDS011;3201;49.962;11.618;2023-02-03T08:01:41;0.90;;;0.90;;
6336;SDS011;3201;49.962;11.618;2023-02-03T08:04:06;1.90;;;0.67;;
6336;SDS011;3201;49.962;11.618;2023-02-03T08:06:32;1.10;;;0.57;;
6336;SDS011;3201;49.962;11.618;2023-02-03T08:08:58;1.10;;;1.00;;
6336;SDS011;3201;49.962;11.618;2023-02-03T08:11:23;2.30;;;0.87;;
6336;SDS011;3201;49.962;11.618;2023-02-03T08:13:48;3.33;;;0.90;;
6336;SDS011;3201;49.962;11.618;2023-02-03T08:16:14;11.77;;;1.10;;
6336;SDS011;3201;49.962;11.618;2023-02-03T08:18:39;1.07;;;0.70;;
6336;SDS011;3201;49.962;11.618;2023-02-03T08:21:04;1.37;;;1.00;;
6336;SDS011;3201;49.962;11.618;2023-02-03T08:23:30;0.73;;;0.73;;
6336;SDS011;3201;49.962;11.618;2023-02-03T08:25:55;1.43;;;1.10;;
6336;SDS011;3201;49.962;11.618;2023-02-03T08:28:20;1.80;;;0.87;;
6336;SDS011;3201;49.962;11.618;2023-02-03T08:30:46;1.03;;;0.93;;
6336;SDS011;3201;49.962;11.618;2023-02-03T08:33:11;1.47;;;1.00;;
6336;SDS011;3201;49.962;11.618;2023-02-03T08:35:36;1.10;;;0.70;;
6336;SDS011;3201;49.962;11.618;2023-02-03T08:38:03;6.73;;;0.83;;
6336;SDS011;3201;49.962;11.618;2023-02-03T08:40:28;0.70;;;0.70;;
6336;SDS011;3201;49.962;11.618;2023-02-03T08:42:53;0.90;;;0.80;;
6336;SDS011;3201;49.962;11.618;2023-02-03T08:45:19;1.20;;;0.80;;
6336;SDS011;3201;49.962;11.618;2023-02-03T08:47:44;1.87;;;0.60;;
6336;SDS011;3201;49.962;11.618;2023-02-03T08:50:09;1.00;;;0.90;;
6336;SDS011;3201;49.962;11.618;2023-02-03T08:52:35;13.70;;;0.80;;
6336;SDS011;3201;49.962;11.618;2023-02-03T08:55:00;1.23;;;0.60;;
6336;SDS011;3201;49.962;11.618;2023-02-03T08:57:25;1.50;;;0.70;;
6336;SDS011;3201;49.962;11.618;2023-02-03T08:59:51;1.20;;;0.83;;
6336;SDS011;3201;49.962;11.618;2023-02-03T09:02:17;1.20;;;0.70;;
6336;SDS011;3201;49.962;11.618;2023-02-03T09:04:43;0.70;;;0.60;;
6336;SDS011;3201;49.962;11.618;2023-02-03T09:07:09;1.77;;;0.90;;
6336;SDS011;3201;49.962;11.618;2023-02-03T09:09:35;1.47;;;1.13;;
6336;SDS011;3201;49.962;11.618;2023-02-03T09:12:00;1.90;;;0.80;;
6336;SDS011;3201;49.962;11.618;2023-02-03T09:14:27;1.03;;;0.93;;
6336;SDS011;3201;49.962;11.618;2023-02-03T09:16:54;0.80;;;0.67;;
6336;SDS011;3201;49.962;11.618;2023-02-03T09:19:19;0.80;;;0.57;;
6336;SDS011;3201;49.962;11.618;2023-02-03T09:21:45;4.50;;;0.90;;
6336;SDS011;3201;49.962;11.618;2023-02-03T09:24:12;0.90;;;0.70;;
6336;SDS011;3201;49.962;11.618;2023-02-03T09:26:38;0.87;;;0.87;;
6336;SDS011;3201;49.962;11.618;2023-02-03T09:29:03;0.60;;;0.50;;
6336;SDS011;3201;49.962;11.618;2023-02-03T09:31:29;1.70;;;0.73;;
6336;SDS011;3201;49.962;11.618;2023-02-03T09:33:54;1.40;;;0.87;;
6336;SDS011;3201;49.962;11.618;2023-02-03T09:36:19;0.90;;;0.73;;
6336;SDS011;3201;49.962;11.618;2023-02-03T09:38:44;1.67;;;0.77;;
6336;SDS011;3201;49.962;11.618;2023-02-03T09:44:21;1.70;;;0.90;;
6336;SDS011;3201;49.962;11.618;2023-02-03T09:46:39;0.80;;;0.70;;
6336;SDS011;3201;49.962;11.618;2023-02-03T09:49:11;1.43;;;0.80;;
6336;SDS011;3201;49.962;11.618;2023-02-03T09:51:49;3.53;;;1.00;;
6336;SDS011;3201;49.962;11.618;2023-02-03T09:54:30;0.80;;;0.77;;
6336;SDS011;3201;49.962;11.618;2023-02-03T09:57:04;5.03;;;0.80;;
6336;SDS011;3201;49.962;11.618;2023-02-03T09:59:31;1.27;;;0.63;;
6336;SDS011;3201;49.962;11.618;2023-02-03T10:01:59;1.00;;;0.90;;
6336;SDS011;3201;49.962;11.618;2023-02-03T10:04:36;0.80;;;0.60;;
6336;SDS011;3201;49.962;11.618;2023-02-03T10:12:26;0.80;;;0.70;;
6336;SDS011;3201;49.962;11.618;2023-02-03T10:15:19;1.40;;;0.80;;
6336;SDS011;3201;49.962;11.618;2023-02-03T10:17:53;1.63;;;0.80;;
6336;SDS011;3201;49.962;11.618;2023-02-03T10:20:22;1.43;;;0.80;;
6336;SDS011;3201;49.962;11.618;2023-02-03T10:22:57;2.30;;;0.83;;
6336;SDS011;3201;49.962;11.618;2023-02-03T10:25:33;1.00;;;0.70;;
6336;SDS011;3201;49.962;11.618;2023-02-03T10:28:02;0.70;;;0.60;;
6336;SDS011;3201;49.962;11.618;2023-02-03T10:30:32;0.90;;;0.50;;
6336;SDS011;3201;49.962;11.618;2023-02-03T10:33:10;2.77;;;0.90;;
6336;SDS011;3201;49.962;11.618;2023-02-03T10:35:40;0.80;;;0.70;;
6336;SDS011;3201;49.962;11.618;2023-02-03T10:38:14;1.50;;;0.87;;
6336;SDS011;3201;49.962;11.618;2023-02-03T10:40:46;0.73;;;0.60;;
6336;SDS011;3201;49.962;11.618;2023-02-03T10:43:11;0.70;;;0.70;;
6336;SDS011;3201;49.962;11.618;2023-02-03T10:45:57;2.10;;;0.73;;
6336;SDS011;3201;49.962;11.618;2023-02-03T10:48:22;1.03;;;0.60;;
6336;SDS011;3201;49.962;11.618;2023-02-03T10:50:49;1.00;;;0.90;;
6336;SDS011;3201;49.962;11.618;2023-02-03T10:55:47;1.03;;;0.93;;
6336;SDS011;3201;49.962;11.618;2023-02-03T10:58:16;0.90;;;0.70;;
6336;SDS011;3201;49.962;11.618;2023-02-03T11:00:47;1.03;;;0.60;;
6336;SDS011;3201;49.962;11.618;2023-02-03T11:03:22;1.07;;;0.97;;
6336;SDS011;3201;49.962;11.618;2023-02-03T11:08:34;1.80;;;1.43;;
6336;SDS011;3201;49.962;11.618;2023-02-03T11:11:02;2.00;;;0.90;;
6336;SDS011;3201;49.962;11.618;2023-02-03T11:13:29;1.23;;;0.60;;
6336;SDS011;3201;49.962;11.618;2023-02-03T11:18:57;1.67;;;0.80;;
6336;SDS011;3201;49.962;11.618;2023-02-03T11:21:12;6.23;;;0.80;;
6336;SDS011;3201;49.962;11.618;2023-02-03T11:26:28;2.10;;;1.00;;
6336;SDS011;3201;49.962;11.618;2023-02-03T11:28:56;0.80;;;0.60;;
6336;SDS011;3201;49.962;11.618;2023-02-03T11:31:25;0.70;;;0.70;;
6336;SDS011;3201;49.962;11.618;2023-02-03T11:33:54;1.20;;;0.67;;
6336;SDS011;3201;49.962;11.618;2023-02-03T11:36:23;0.87;;;0.73;;
6336;SDS011;3201;49.962;11.618;2023-02-03T11:38:50;1.13;;;0.63;;
6336;SDS011;3201;49.962;11.618;2023-02-03T11:41:16;1.23;;;0.83;;
6336;SDS011;3201;49.962;11.618;2023-02-03T11:43:43;0.70;;;0.50;;
6336;SDS011;3201;49.962;11.618;2023-02-03T11:46:09;0.77;;;0.50;;
6336;SDS011;3201;49.962;11.618;2023-02-03T11:48:35;1.70;;;0.50;;
6336;SDS011;3201;49.962;11.618;2023-02-03T11:51:10;0.67;;;0.60;;
6336;SDS011;3201;49.962;11.618;2023-02-03T11:56:22;0.80;;;0.70;;
6336;SDS011;3201;49.962;11.618;2023-02-03T12:00:02;0.97;;;0.60;;
6336;SDS011;3201;49.962;11.618;2023-02-03T12:11:09;0.60;;;0.60;;
6336;SDS011;3201;49.962;11.618;2023-02-03T12:21:06;0.70;;;0.53;;
6336;SDS011;3201;49.962;11.618;2023-02-03T12:26:33;0.70;;;0.50;;
6336;SDS011;3201;49.962;11.618;2023-02-03T12:34:05;15.77;;;1.93;;
6336;SDS011;3201;49.962;11.618;2023-02-03T12:36:38;24.87;;;2.77;;
6336;SDS011;3201;49.962;11.618;2023-02-03T12:39:06;17.63;;;2.30;;
6336;SDS011;3201;49.962;11.618;2023-02-03T12:41:37;20.43;;;2.33;;
6336;SDS011;3201;49.962;11.618;2023-02-03T12:44:07;23.60;;;1.90;;
6336;SDS011;3201;49.962;11.618;2023-02-03T12:47:00;23.23;;;2.83;;
6336;SDS011;3201;49.962;11.618;2023-02-03T12:49:31;27.70;;;2.30;;
6336;SDS011;3201;49.962;11.618;2023-02-03T12:52:04;16.33;;;1.83;;
6336;SDS011;3201;49.962;11.618;2023-02-03T12:57:19;12.17;;;2.50;;
6336;SDS011;3201;49.962;11.618;2023-02-03T12:59:55;13.90;;;2.10;;
6336;SDS011;3201;49.962;11.618;2023-02-03T13:02:26;18.67;;;1.93;;
6336;SDS011;3201;49.962;11.618;2023-02-03T13:04:55;13.03;;;1.57;;
6336;SDS011;3201;49.962;11.618;2023-02-03T13:07:26;8.20;;;1.50;;
6336;SDS011;3201;49.962;11.618;2023-02-03T13:10:27;18.10;;;1.93;;
6336;SDS011;3201;49.962;11.618;2023-02-03T13:12:40;17.60;;;2.07;;
6336;SDS011;3201;49.962;11.618;2023-02-03T13:15:17;14.23;;;1.80;;
6336;SDS011;3201;49.962;11.618;2023-02-03T13:17:47;12.53;;;1.33;;
6336;SDS011;3201;49.962;11.618;2023-02-03T13:20:18;6.43;;;0.90;;
6336;SDS011;3201;49.962;11.618;2023-02-03T13:22:44;7.17;;;1.53;;
6336;SDS011;3201;49.962;11.618;2023-02-03T13:31:13;14.03;;;1.50;;
6336;SDS011;3201;49.962;11.618;2023-02-03T13:37:11;11.63;;;1.47;;
6336;SDS011;3201;49.962;11.618;2023-02-03T13:42:31;5.33;;;1.50;;
6336;SDS011;3201;49.962;11.618;2023-02-03T13:45:01;11.10;;;1.93;;
6336;SDS011;3201;49.962;11.618;2023-02-03T13:47:37;8.10;;;1.30;;
6336;SDS011;3201;49.962;11.618;2023-02-03T13:50:04;8.00;;;2.33;;
6336;SDS011;3201;49.962;11.618;2023-02-03T13:52:33;10.17;;;1.60;;
6336;SDS011;3201;49.962;11.618;2023-02-03T13:55:02;10.60;;;1.70;;
6336;SDS011;3201;49.962;11.618;2023-02-03T13:57:30;5.00;;;1.30;;
6336;SDS011;3201;49.962;11.618;2023-02-03T13:59:58;7.50;;;1.17;;
6336;SDS011;3201;49.962;11.618;2023-02-03T14:04:53;2.67;;;0.70;;
6336;SDS011;3201;49.962;11.618;2023-02-03T14:07:37;3.03;;;1.30;;
6336;SDS011;3201;49.962;11.618;2023-02-03T14:12:55;5.43;;;1.17;;
6336;SDS011;3201;49.962;11.618;2023-02-03T14:17:58;3.53;;;0.80;;
6336;SDS011;3201;49.962;11.618;2023-02-03T14:22:54;3.27;;;1.00;;
6336;SDS011;3201;49.962;11.618;2023-02-03T14:25:22;3.60;;;0.90;;
6336;SDS011;3201;49.962;11.618;2023-02-03T14:27:57;2.50;;;0.80;;
6336;SDS011;3201;49.962;11.618;2023-02-03T14:30:23;3.03;;;0.93;;
6336;SDS011;3201;49.962;11.618;2023-02-03T14:32:51;4.20;;;1.03;;
6336;SDS011;3201;49.962;11.618;2023-02-03T14:35:42;5.83;;;1.10;;
6336;SDS011;3201;49.962;11.618;2023-02-03T14:38:08;2.20;;;0.67;;
6336;SDS011;3201;49.962;11.618;2023-02-03T14:43:30;3.10;;;0.73;;
6336;SDS011;3201;49.962;11.618;2023-02-03T14:50:02;2.70;;;1.00;;
6336;SDS011;3201;49.962;11.618;2023-02-03T14:52:05;1.50;;;0.50;;
6336;SDS011;3201;49.962;11.618;2023-02-03T14:57:52;3.77;;;0.60;;
6336;SDS011;3201;49.962;11.618;2023-02-03T15:03:20;1.67;;;0.60;;
6336;SDS011;3201;49.962;11.618;2023-02-03T15:05:35;4.10;;;0.80;;
6336;SDS011;3201;49.962;11.618;2023-02-03T15:08:07;3.07;;;0.53;;
6336;SDS011;3201;49.962;11.618;2023-02-03T15:10:59;0.60;;;0.40;;
6336;SDS011;3201;49.962;11.618;2023-02-03T15:13:25;2.00;;;0.80;;
6336;SDS011;3201;49.962;11.618;2023-02-03T15:15:54;2.73;;;0.77;;
6336;SDS011;3201;49.962;11.618;2023-02-03T15:18:25;1.90;;;0.60;;
6336;SDS011;3201;49.962;11.618;2023-02-03T15:20:54;2.60;;;0.80;;
6336;SDS011;3201;49.962;11.618;2023-02-03T15:23:21;3.17;;;0.60;;
6336;SDS011;3201;49.962;11.618;2023-02-03T15:25:56;1.03;;;0.50;;
6336;SDS011;3201;49.962;11.618;2023-02-03T15:28:23;2.90;;;0.67;;
6336;SDS011;3201;49.962;11.618;2023-02-03T15:30:51;0.90;;;0.60;;
6336;SDS011;3201;49.962;11.618;2023-02-03T15:33:22;2.10;;;0.70;;
6336;SDS011;3201;49.962;11.618;2023-02-03T15:35:49;2.30;;;0.73;;
6336;SDS011;3201;49.962;11.618;2023-02-03T15:38:24;1.47;;;0.60;;
6336;SDS011;3201;49.962;11.618;2023-02-03T15:40:52;1.43;;;0.40;;
6336;SDS011;3201;49.962;11.618;2023-02-03T15:44:23;3.00;;;0.50;;
6336;SDS011;3201;49.962;11.618;2023-02-03T15:46:05;1.03;;;0.50;;
6336;SDS011;3201;49.962;11.618;2023-02-03T15:53:41;1.77;;;0.60;;
6336;SDS011;3201;49.962;11.618;2023-02-03T15:56:10;1.57;;;0.50;;
6336;SDS011;3201;49.962;11.618;2023-02-03T15:58:43;1.10;;;0.50;;
6336;SDS011;3201;49.962;11.618;2023-02-03T16:01:11;2.40;;;0.93;;
6336;SDS011;3201;49.962;11.618;2023-02-03T16:06:08;0.63;;;0.40;;
6336;SDS011;3201;49.962;11.618;2023-02-03T16:08:37;1.40;;;0.90;;
6336;SDS011;3201;49.962;11.618;2023-02-03T16:11:27;1.20;;;0.57;;
6336;SDS011;3201;49.962;11.618;2023-02-03T16:13:58;2.40;;;0.60;;
6336;SDS011;3201;49.962;11.618;2023-02-03T16:16:27;2.20;;;0.70;;
6336;SDS011;3201;49.962;11.618;2023-02-03T16:18:55;0.90;;;0.53;;
6336;SDS011;3201;49.962;11.618;2023-02-03T16:21:54;1.13;;;0.60;;
6336;SDS011;3201;49.962;11.618;2023-02-03T16:27:18;2.20;;;0.50;;
6336;SDS011;3201;49.962;11.618;2023-02-03T16:29:46;0.60;;;0.33;;
6336;SDS011;3201;49.962;11.618;2023-02-03T16:32:31;0.90;;;0.50;;
6336;SDS011;3201;49.962;11.618;2023-02-03T16:35:16;0.80;;;0.50;;
6336;SDS011;3201;49.962;11.618;2023-02-03T16:38:17;1.23;;;0.40;;
6336;SDS011;3201;49.962;11.618;2023-02-03T16:41:03;0.70;;;0.40;;
6336;SDS011;3201;49.962;11.618;2023-02-03T16:43:48;0.60;;;0.40;;
6336;SDS011;3201;49.962;11.618;2023-02-03T16:46:33;0.50;;;0.30;;
6336;SDS011;3201;49.962;11.618;2023-02-03T16:49:18;1.10;;;0.60;;
6336;SDS011;3201;49.962;11.618;2023-02-03T16:52:04;2.47;;;0.50;;
6336;SDS011;3201;49.962;11.618;2023-02-03T16:54:30;1.87;;;0.50;;
6336;SDS011;3201;49.962;11.618;2023-02-03T16:56:55;0.70;;;0.40;;
6336;SDS011;3201;49.962;11.618;2023-02-03T16:59:20;1.40;;;0.63;;
6336;SDS011;3201;49.962;11.618;2023-02-03T17:01:46;0.87;;;0.40;;
6336;SDS011;3201;49.962;11.618;2023-02-03T17:04:11;1.67;;;0.50;;
6336;SDS011;3201;49.962;11.618;2023-02-03T17:06:37;0.90;;;0.50;;
6336;SDS011;3201;49.962;11.618;2023-02-03T17:09:03;0.93;;;0.60;;
6336;SDS011;3201;49.962;11.618;2023-02-03T17:11:28;1.00;;;0.50;;